Edgewood, Florida
Current Conditions -  °F | °C
As of 6:53 AM on Thursday 29 Jan 2015 (Local Time) from KORL Reporting Station
Clear Clear  
Wind Chill: 45°   Ceiling: Unl
Heat Index: 45°   Visibility: 10mi
Dew Point: 38°   Wind: 3mph
Humidity: 76%   Direction: 320°NW
Pressure: 30.28"   Gusts: NA
Location:  28.4877°N, 81.409°W
Report Text: KORL 291153Z 32003KT 10SM CLR 07/03 A3028 RMK AO2 SLP259 T00720033 10089 20061 53004
Loading
Personal Weather Stations






























Interactive Weather Map New forecast layout! Learn more

10-Day Weather Forecast

Advertisements
Track Severe Weather on mobile